createdAt,value
2016-03-11T00:00:49.881Z,955.23
2016-03-11T00:01:49.898Z,955.21
2016-03-11T00:02:49.901Z,955.22
2016-03-11T00:03:49.904Z,955.21
2016-03-11T00:04:49.922Z,955.2
2016-03-11T00:05:49.926Z,955.24
2016-03-11T00:06:49.944Z,955.25
2016-03-11T00:07:49.946Z,955.2
2016-03-11T00:08:49.964Z,955.21
2016-03-11T00:09:49.967Z,955.18
2016-03-11T00:10:49.970Z,955.17
2016-03-11T00:11:49.989Z,955.16
2016-03-11T00:12:49.992Z,955.21
2016-03-11T00:13:50.009Z,955.19
2016-03-11T00:14:50.028Z,955.23
2016-03-11T00:15:50.031Z,955.19
2016-03-11T00:16:50.033Z,955.25
2016-03-11T00:17:50.052Z,955.26
2016-03-11T00:18:50.054Z,955.24
2016-03-11T00:19:50.057Z,955.24
2016-03-11T00:20:50.075Z,955.25
2016-03-11T00:21:50.078Z,955.29
2016-03-11T00:22:50.080Z,955.31
2016-03-11T00:23:50.099Z,955.33
2016-03-11T00:24:50.102Z,955.32
2016-03-11T00:25:50.135Z,955.33
2016-03-11T00:26:50.123Z,955.32
2016-03-11T00:27:50.141Z,955.34
2016-03-11T00:28:50.143Z,955.3
2016-03-11T00:29:50.162Z,955.32
2016-03-11T00:30:50.165Z,955.33
2016-03-11T00:31:50.198Z,955.35
2016-03-11T00:32:50.170Z,955.37
2016-03-11T00:33:50.188Z,955.37
2016-03-11T00:34:50.190Z,955.38
2016-03-11T00:35:50.210Z,955.36
2016-03-11T00:36:50.213Z,955.34
2016-03-11T00:37:50.215Z,955.36
2016-03-11T00:38:50.234Z,955.32
2016-03-11T00:39:50.251Z,955.32
2016-03-11T00:40:50.254Z,955.31
2016-03-11T00:41:50.257Z,955.36
2016-03-11T00:42:50.259Z,955.3
2016-03-11T00:43:50.278Z,955.34
2016-03-11T00:44:50.297Z,955.4
2016-03-11T00:45:50.299Z,955.39
2016-03-11T00:46:50.317Z,955.34
2016-03-11T00:47:50.320Z,955.36
2016-03-11T00:48:50.322Z,955.34
2016-03-11T00:49:50.325Z,955.36
2016-03-11T00:50:50.344Z,955.34
2016-03-11T00:51:50.347Z,955.37
2016-03-11T00:52:50.350Z,955.35
2016-03-11T00:53:50.368Z,955.36
2016-03-11T00:54:50.370Z,955.37
2016-03-11T00:55:50.389Z,955.4
2016-03-11T00:56:50.392Z,955.38
2016-03-11T00:57:50.410Z,955.35
2016-03-11T00:58:50.413Z,955.39
2016-03-11T00:59:50.431Z,955.4
2016-03-11T01:00:50.433Z,955.37
2016-03-11T01:01:50.452Z,955.41
2016-03-11T01:02:50.471Z,955.44
2016-03-11T01:03:50.458Z,955.44
2016-03-11T01:04:50.507Z,955.49
2016-03-11T01:05:50.479Z,955.51
2016-03-11T01:06:50.481Z,955.52
2016-03-11T01:07:50.499Z,955.53
2016-03-11T01:08:50.502Z,955.53
2016-03-11T01:09:50.504Z,955.53
2016-03-11T01:10:50.523Z,955.53
2016-03-11T01:11:50.526Z,955.52
2016-03-11T01:12:50.543Z,955.52
2016-03-11T01:13:50.546Z,955.51
2016-03-11T01:14:50.549Z,955.51
2016-03-11T01:15:50.568Z,955.5
2016-03-11T01:16:50.570Z,955.52
2016-03-11T01:17:50.573Z,955.5
2016-03-11T01:18:50.592Z,955.51
2016-03-11T01:19:50.595Z,955.46
2016-03-11T01:20:50.598Z,955.49
2016-03-11T01:21:50.615Z,955.48
2016-03-11T01:22:50.617Z,955.45
2016-03-11T01:23:50.636Z,955.46
2016-03-11T01:24:50.686Z,955.48
2016-03-11T01:25:50.658Z,955.45
2016-03-11T01:26:50.661Z,955.45
2016-03-11T01:27:50.664Z,955.47
2016-03-11T01:28:50.681Z,955.45
2016-03-11T01:29:50.684Z,955.47
2016-03-11T01:30:50.687Z,955.46
2016-03-11T01:31:50.705Z,955.44
2016-03-11T01:32:50.723Z,955.45
2016-03-11T01:33:50.711Z,955.48
2016-03-11T01:34:50.728Z,955.47
2016-03-11T01:35:50.731Z,955.45
2016-03-11T01:36:50.750Z,955.47
2016-03-11T01:37:50.752Z,955.44
2016-03-11T01:38:50.756Z,955.45
2016-03-11T01:39:50.789Z,955.44
2016-03-11T01:40:50.776Z,955.45
2016-03-11T01:41:50.779Z,955.46
2016-03-11T01:42:50.796Z,955.47
2016-03-11T01:43:50.800Z,955.5
2016-03-11T01:44:50.803Z,955.47
2016-03-11T01:45:50.821Z,955.45
2016-03-11T01:46:50.824Z,955.46
2016-03-11T01:47:50.826Z,955.46
2016-03-11T01:48:50.845Z,955.44
2016-03-11T01:49:50.847Z,955.47
2016-03-11T01:50:50.866Z,955.48
2016-03-11T01:51:50.868Z,955.49
2016-03-11T01:52:50.887Z,955.46
2016-03-11T01:53:50.873Z,955.45
2016-03-11T01:54:50.892Z,955.45
2016-03-11T01:55:50.894Z,955.43
2016-03-11T01:56:50.913Z,955.38
2016-03-11T01:57:50.915Z,955.4
2016-03-11T01:58:50.930Z,955.44
2016-03-11T01:59:50.922Z,955.42
2016-03-11T02:00:50.913Z,955.46
2016-03-11T02:01:50.922Z,955.45
2016-03-11T02:02:50.914Z,955.46
2016-03-11T02:03:50.908Z,955.48
2016-03-11T02:04:50.922Z,955.45
2016-03-11T02:05:50.921Z,955.5
2016-03-11T02:06:50.936Z,955.5
2016-03-11T02:07:50.935Z,955.53
2016-03-11T02:08:50.934Z,955.51
2016-03-11T02:09:50.951Z,955.57
2016-03-11T02:10:50.953Z,955.55
2016-03-11T02:11:50.969Z,955.56
2016-03-11T02:12:50.970Z,955.56
2016-03-11T02:13:50.971Z,955.61
2016-03-11T02:14:50.990Z,955.6
2016-03-11T02:15:50.992Z,955.65
2016-03-11T02:16:50.995Z,955.65
2016-03-11T02:17:51.011Z,955.64
2016-03-11T02:18:51.014Z,955.6
2016-03-11T02:19:51.017Z,955.66
2016-03-11T02:20:51.036Z,955.57
2016-03-11T02:21:51.054Z,955.58
2016-03-11T02:22:51.041Z,955.58
2016-03-11T02:23:51.060Z,955.58
2016-03-11T02:24:51.063Z,955.55
2016-03-11T02:25:51.080Z,955.59
2016-03-11T02:26:51.083Z,955.58
2016-03-11T02:27:51.085Z,955.57
2016-03-11T02:28:51.120Z,955.59
2016-03-11T02:29:51.107Z,955.59
2016-03-11T02:30:51.109Z,955.61
2016-03-11T02:31:51.128Z,955.55
2016-03-11T02:32:51.131Z,955.57
2016-03-11T02:33:51.134Z,955.56
2016-03-11T02:34:51.136Z,955.54
2016-03-11T02:35:51.154Z,955.55
2016-03-11T02:36:51.156Z,955.53
2016-03-11T02:37:51.176Z,955.54
2016-03-11T02:38:51.178Z,955.54
2016-03-11T02:39:51.181Z,955.56
2016-03-11T02:40:51.199Z,955.53
2016-03-11T02:41:51.201Z,955.5
2016-03-11T02:42:51.204Z,955.52
2016-03-11T02:43:51.223Z,955.51
2016-03-11T02:44:51.226Z,955.53
2016-03-11T02:45:51.244Z,955.53
2016-03-11T02:46:51.247Z,955.54
2016-03-11T02:47:51.249Z,955.51
2016-03-11T02:48:51.252Z,955.55
2016-03-11T02:49:51.270Z,955.57
2016-03-11T02:50:51.272Z,955.55
2016-03-11T02:51:51.291Z,955.58
2016-03-11T02:52:51.293Z,955.55
2016-03-11T02:53:51.296Z,955.64
2016-03-11T02:54:51.299Z,955.59
2016-03-11T02:55:51.318Z,955.58
2016-03-11T02:56:51.320Z,955.6
2016-03-11T02:57:51.323Z,955.58
2016-03-11T02:58:51.341Z,955.58
2016-03-11T02:59:51.359Z,955.59
2016-03-11T03:00:51.363Z,955.6
2016-03-11T03:01:51.380Z,955.6
2016-03-11T03:02:51.383Z,955.59
2016-03-11T03:03:51.385Z,955.63
2016-03-11T03:04:51.387Z,955.66
2016-03-11T03:05:51.390Z,955.65
2016-03-11T03:06:51.409Z,955.62
2016-03-11T03:07:51.412Z,955.62
2016-03-11T03:08:51.431Z,955.62
2016-03-11T03:09:51.433Z,955.6
2016-03-11T03:10:51.436Z,955.65
2016-03-11T03:11:51.454Z,955.64
2016-03-11T03:12:51.456Z,955.65
2016-03-11T03:13:51.459Z,955.65
2016-03-11T03:14:51.478Z,955.65
2016-03-11T03:15:51.480Z,955.71
2016-03-11T03:16:51.499Z,955.64
2016-03-11T03:17:51.501Z,955.68
2016-03-11T03:18:51.505Z,955.64
2016-03-11T03:19:51.523Z,955.62
2016-03-11T03:20:51.525Z,955.61
2016-03-11T03:21:51.528Z,955.63
2016-03-11T03:22:51.546Z,955.64
2016-03-11T03:23:51.564Z,955.62
2016-03-11T03:24:51.552Z,955.66
2016-03-11T03:25:51.555Z,955.64
2016-03-11T03:26:51.572Z,955.63
2016-03-11T03:27:51.575Z,955.64
2016-03-11T03:28:51.578Z,955.65
2016-03-11T03:29:51.596Z,955.62
2016-03-11T03:30:51.598Z,955.61
2016-03-11T03:31:51.602Z,955.6
2016-03-11T03:32:51.620Z,955.61
2016-03-11T03:33:51.623Z,955.62
2016-03-11T03:34:51.625Z,955.61
2016-03-11T03:35:51.644Z,955.59
2016-03-11T03:36:51.646Z,955.62
2016-03-11T03:37:51.665Z,955.65
2016-03-11T03:38:51.668Z,955.66
2016-03-11T03:39:51.670Z,955.66
2016-03-11T03:40:51.673Z,955.65
2016-03-11T03:41:51.692Z,955.64
2016-03-11T03:42:51.772Z,955.62
2016-03-11T03:43:51.728Z,955.66
2016-03-11T03:44:51.715Z,955.66
2016-03-11T03:45:51.717Z,955.67
2016-03-11T03:46:51.783Z,955.67
2016-03-11T03:47:51.738Z,955.7
2016-03-11T03:48:51.741Z,955.67
2016-03-11T03:49:51.759Z,955.7
2016-03-11T03:50:51.747Z,955.71
2016-03-11T03:51:51.764Z,955.67
2016-03-11T03:52:51.783Z,955.68
2016-03-11T03:53:51.785Z,955.67
2016-03-11T03:54:51.788Z,955.64
2016-03-11T03:55:51.791Z,955.67
2016-03-11T03:56:51.810Z,955.68
2016-03-11T03:57:51.812Z,955.72
2016-03-11T03:58:51.830Z,955.71
2016-03-11T03:59:51.833Z,955.73
2016-03-11T04:00:51.836Z,955.72
2016-03-11T04:01:51.855Z,955.74
2016-03-11T04:02:51.857Z,955.78
2016-03-11T04:03:51.859Z,955.81
2016-03-11T04:04:51.879Z,955.81
2016-03-11T04:05:51.881Z,955.79
2016-03-11T04:06:51.884Z,955.84
2016-03-11T04:07:51.901Z,955.74
2016-03-11T04:08:51.904Z,955.75
2016-03-11T04:09:51.907Z,955.73
2016-03-11T04:10:51.909Z,955.76
2016-03-11T04:11:51.928Z,955.73
2016-03-11T04:12:51.931Z,955.72
2016-03-11T04:13:51.933Z,955.71
2016-03-11T04:14:51.951Z,955.69
2016-03-11T04:15:51.954Z,955.75
2016-03-11T04:16:51.972Z,955.74
2016-03-11T04:17:51.976Z,955.78
2016-03-11T04:18:51.978Z,955.75
2016-03-11T04:19:51.997Z,955.7
2016-03-11T04:20:51.999Z,955.76
2016-03-11T04:21:52.002Z,955.76
2016-03-11T04:22:52.005Z,955.79
2016-03-11T04:23:52.023Z,955.75
2016-03-11T04:24:52.025Z,955.77
2016-03-11T04:25:52.028Z,955.73
2016-03-11T04:26:52.046Z,955.75
2016-03-11T04:27:52.049Z,955.76
2016-03-11T04:28:52.068Z,955.76
2016-03-11T04:29:52.071Z,955.72
2016-03-11T04:30:52.088Z,955.76
2016-03-11T04:31:52.091Z,955.79
2016-03-11T04:32:52.094Z,955.77
2016-03-11T04:33:52.175Z,955.79
2016-03-11T04:34:52.115Z,955.86
2016-03-11T04:35:52.118Z,955.83
2016-03-11T04:36:52.135Z,955.84
2016-03-11T04:37:52.138Z,955.84
2016-03-11T04:38:52.141Z,955.88
2016-03-11T04:39:52.159Z,955.88
2016-03-11T04:40:52.162Z,955.92
2016-03-11T04:41:52.164Z,955.92
2016-03-11T04:42:52.167Z,955.92
2016-03-11T04:43:52.170Z,955.95
2016-03-11T04:44:52.204Z,955.93
2016-03-11T04:45:52.192Z,955.98
2016-03-11T04:46:52.210Z,955.97
2016-03-11T04:47:52.212Z,955.95
2016-03-11T04:48:52.214Z,955.96
2016-03-11T04:49:52.218Z,955.97
2016-03-11T04:50:52.236Z,955.96
2016-03-11T04:51:52.238Z,955.96
2016-03-11T04:52:52.242Z,955.92
2016-03-11T04:53:52.244Z,955.95
2016-03-11T04:54:52.278Z,955.96
2016-03-11T04:55:52.281Z,955.96
2016-03-11T04:56:52.283Z,955.99
2016-03-11T04:57:52.286Z,956
2016-03-11T04:58:52.305Z,955.97
2016-03-11T04:59:52.307Z,955.93
2016-03-11T05:00:52.324Z,955.94
2016-03-11T05:01:52.328Z,955.93
2016-03-11T05:02:52.330Z,955.94
2016-03-11T05:03:52.333Z,955.97
2016-03-11T05:04:52.335Z,955.95
2016-03-11T05:05:52.355Z,955.99
2016-03-11T05:06:52.347Z,955.96
2016-03-11T05:07:52.366Z,956.01
2016-03-11T05:08:52.369Z,955.99
2016-03-11T05:09:52.387Z,955.97
2016-03-11T05:10:52.374Z,955.96
2016-03-11T05:11:52.392Z,955.97
2016-03-11T05:12:52.395Z,956.01
2016-03-11T05:13:52.412Z,956.02
2016-03-11T05:14:52.416Z,956.07
2016-03-11T05:15:52.418Z,956.03
2016-03-11T05:16:52.437Z,956.03
2016-03-11T05:17:52.440Z,956.06
2016-03-11T05:18:52.442Z,956.11
2016-03-11T05:19:52.445Z,956.1
2016-03-11T05:20:52.462Z,956.05
2016-03-11T05:21:52.481Z,956.04
2016-03-11T05:22:52.465Z,956.07
2016-03-11T05:23:52.487Z,956.06
2016-03-11T05:24:52.489Z,956.05
2016-03-11T05:25:52.492Z,956.09
2016-03-11T05:26:52.511Z,956.1
2016-03-11T05:27:52.514Z,956.06
2016-03-11T05:28:52.531Z,956.06
2016-03-11T05:29:52.534Z,956.07
2016-03-11T05:30:52.536Z,956.09
2016-03-11T05:31:52.540Z,956.13
2016-03-11T05:32:52.558Z,956.15
2016-03-11T05:33:52.561Z,956.12
2016-03-11T05:34:52.579Z,956.11
2016-03-11T05:35:52.582Z,956.06
2016-03-11T05:36:52.585Z,956.09
2016-03-11T05:37:52.602Z,956.05
2016-03-11T05:38:52.590Z,956.08
2016-03-11T05:39:52.607Z,956.11
2016-03-11T05:40:52.611Z,956.11
2016-03-11T05:41:52.629Z,956.1
2016-03-11T05:42:52.616Z,956.1
2016-03-11T05:43:52.635Z,956.13
2016-03-11T05:44:52.637Z,956.07
2016-03-11T05:45:52.655Z,956.1
2016-03-11T05:46:52.657Z,956.12
2016-03-11T05:47:52.677Z,956.13
2016-03-11T05:48:52.679Z,956.14
2016-03-11T05:49:52.682Z,956.13
2016-03-11T05:50:52.700Z,956.17
2016-03-11T05:51:52.687Z,956.16
2016-03-11T05:52:52.706Z,956.18
2016-03-11T05:53:52.708Z,956.21
2016-03-11T05:54:52.726Z,956.26
2016-03-11T05:55:52.728Z,956.28
2016-03-11T05:56:52.732Z,956.26
2016-03-11T05:57:52.750Z,956.27
2016-03-11T05:58:52.753Z,956.25
2016-03-11T05:59:52.755Z,956.29
2016-03-11T06:00:52.774Z,956.25
2016-03-11T06:01:52.777Z,956.3
2016-03-11T06:02:52.795Z,956.3
2016-03-11T06:03:52.797Z,956.31
2016-03-11T06:04:52.800Z,956.33
2016-03-11T06:05:52.803Z,956.35
2016-03-11T06:06:52.806Z,956.34
2016-03-11T06:07:52.824Z,956.34
2016-03-11T06:08:52.842Z,956.36
2016-03-11T06:09:52.844Z,956.38
2016-03-11T06:10:52.847Z,956.37
2016-03-11T06:11:52.850Z,956.4
2016-03-11T06:12:52.868Z,956.39
2016-03-11T06:13:52.872Z,956.41
2016-03-11T06:14:52.874Z,956.37
2016-03-11T06:15:52.877Z,956.44
2016-03-11T06:16:52.895Z,956.42
2016-03-11T06:17:52.898Z,956.45
2016-03-11T06:18:52.900Z,956.49
2016-03-11T06:19:52.903Z,956.51
2016-03-11T06:20:52.921Z,956.5
2016-03-11T06:21:52.940Z,956.49
2016-03-11T06:22:52.943Z,956.48
2016-03-11T06:23:52.945Z,956.46
2016-03-11T06:24:52.964Z,956.47
2016-03-11T06:25:52.966Z,956.51
2016-03-11T06:26:52.969Z,956.56
2016-03-11T06:27:52.972Z,956.53
2016-03-11T06:28:52.989Z,956.57
2016-03-11T06:29:52.992Z,956.57
2016-03-11T06:30:53.011Z,956.6
2016-03-11T06:31:53.014Z,956.53
2016-03-11T06:32:53.016Z,956.55
2016-03-11T06:33:53.019Z,956.58
2016-03-11T06:34:53.036Z,956.57
2016-03-11T06:35:53.039Z,956.55
2016-03-11T06:36:53.058Z,956.56
2016-03-11T06:37:53.061Z,956.56
2016-03-11T06:38:53.063Z,956.61
2016-03-11T06:39:53.082Z,956.62
2016-03-11T06:40:53.085Z,956.63
2016-03-11T06:41:53.087Z,956.61
2016-03-11T06:42:53.090Z,956.63
2016-03-11T06:43:53.107Z,956.59
2016-03-11T06:44:53.142Z,956.57
2016-03-11T06:45:53.129Z,956.56
2016-03-11T06:46:53.132Z,956.61
2016-03-11T06:47:53.150Z,956.62
2016-03-11T06:48:53.153Z,956.59
2016-03-11T06:49:53.170Z,956.59
2016-03-11T06:50:53.173Z,956.64
2016-03-11T06:51:53.176Z,956.61
2016-03-11T06:52:53.179Z,956.63
2016-03-11T06:53:53.198Z,956.62
2016-03-11T06:54:53.201Z,956.64
2016-03-11T06:55:53.218Z,956.62
2016-03-11T06:56:53.221Z,956.66
2016-03-11T06:57:53.224Z,956.65
2016-03-11T06:58:53.243Z,956.66
2016-03-11T06:59:53.245Z,956.76
2016-03-11T07:00:53.264Z,956.73
2016-03-11T07:01:53.266Z,956.71
2016-03-11T07:02:53.269Z,956.75
2016-03-11T07:03:53.286Z,956.76
2016-03-11T07:04:53.289Z,956.7
2016-03-11T07:05:53.292Z,956.75
2016-03-11T07:06:53.327Z,956.75
2016-03-11T07:07:53.313Z,956.71
2016-03-11T07:08:53.332Z,956.72
2016-03-11T07:09:53.335Z,956.69
2016-03-11T07:10:53.337Z,956.69
2016-03-11T07:11:53.355Z,956.69
2016-03-11T07:12:53.374Z,956.72
2016-03-11T07:13:53.377Z,956.68
2016-03-11T07:14:53.394Z,956.7
2016-03-11T07:15:53.397Z,956.7
2016-03-11T07:16:53.399Z,956.72
2016-03-11T07:17:53.419Z,956.77
2016-03-11T07:18:53.421Z,956.75
2016-03-11T07:19:53.440Z,956.75
2016-03-11T07:20:53.442Z,956.77
2016-03-11T07:21:53.460Z,956.78
2016-03-11T07:22:53.463Z,956.74
2016-03-11T07:23:53.482Z,956.76
2016-03-11T07:24:53.484Z,956.78
2016-03-11T07:25:53.503Z,956.81
2016-03-11T07:26:53.505Z,956.84
2016-03-11T07:27:53.523Z,956.83
2016-03-11T07:28:53.542Z,956.86
2016-03-11T07:29:53.545Z,956.94
2016-03-11T07:30:53.547Z,957
2016-03-11T07:31:53.565Z,956.99
2016-03-11T07:32:53.584Z,956.95
2016-03-11T07:33:53.602Z,956.92
2016-03-11T07:34:53.605Z,956.96
2016-03-11T07:35:53.607Z,956.94
2016-03-11T07:36:53.625Z,956.96
2016-03-11T07:37:53.644Z,956.99
2016-03-11T07:38:53.647Z,957.01
2016-03-11T07:39:53.665Z,957.02
2016-03-11T07:40:53.668Z,957.01
2016-03-11T07:41:53.685Z,957.03
2016-03-11T07:42:53.705Z,957.09
2016-03-11T07:43:53.722Z,957.12
2016-03-11T07:44:53.725Z,957.13
2016-03-11T07:45:53.744Z,957.15
2016-03-11T07:46:53.746Z,957.26
2016-03-11T07:47:53.780Z,957.26
2016-03-11T07:48:53.782Z,957.28
2016-03-11T07:49:53.802Z,957.36
2016-03-11T07:50:53.804Z,957.41
2016-03-11T07:51:53.823Z,957.38
2016-03-11T07:52:53.840Z,957.3
2016-03-11T07:53:53.843Z,957.34
2016-03-11T07:54:53.876Z,957.22
2016-03-11T07:55:53.879Z,957.26
2016-03-11T07:56:53.898Z,957.29
2016-03-11T07:57:53.917Z,957.29
2016-03-11T07:58:53.919Z,957.28
2016-03-11T07:59:53.937Z,957.22
2016-03-11T08:00:54.018Z,957.29
2016-03-11T08:01:54.005Z,957.3
2016-03-11T08:02:53.974Z,957.27
2016-03-11T08:03:53.993Z,957.35
2016-03-11T08:04:54.011Z,957.24
2016-03-11T08:05:54.029Z,957.48
2016-03-11T08:06:54.047Z,957.46
2016-03-11T08:07:54.066Z,957.28
2016-03-11T08:08:54.084Z,957.52
2016-03-11T08:09:54.103Z,957.28
2016-03-11T08:10:54.105Z,957.39
2016-03-11T08:11:54.124Z,957.47
2016-03-11T08:12:54.142Z,957.56
2016-03-11T08:13:54.161Z,957.28
2016-03-11T08:14:54.178Z,957.31
2016-03-11T08:15:54.197Z,957.28
2016-03-11T08:16:54.231Z,957.28
2016-03-11T08:17:54.218Z,957.31
2016-03-11T08:18:54.236Z,957.45
2016-03-11T08:19:54.255Z,957.24
2016-03-11T08:20:54.273Z,957.23
2016-03-11T08:21:54.291Z,957.22
2016-03-11T08:22:54.310Z,957.22
2016-03-11T08:23:54.327Z,957.28
2016-03-11T08:24:54.346Z,957.34
2016-03-11T08:25:54.364Z,957.38
2016-03-11T08:26:54.382Z,957.38
2016-03-11T08:27:54.385Z,957.31
2016-03-11T08:28:54.403Z,957.29
2016-03-11T08:29:54.422Z,957.28
2016-03-11T08:30:54.440Z,957.28
2016-03-11T08:31:54.459Z,957.33
2016-03-11T08:32:54.476Z,957.35
2016-03-11T08:33:54.498Z,957.36
2016-03-11T08:34:54.500Z,957.39
2016-03-11T08:35:54.534Z,957.37
2016-03-11T08:36:54.552Z,957.37
2016-03-11T08:37:54.572Z,957.38
2016-03-11T08:38:54.574Z,957.38
2016-03-11T08:39:54.608Z,957.38
2016-03-11T08:40:54.611Z,957.32
2016-03-11T08:41:54.628Z,957.35
2016-03-11T08:42:54.647Z,957.3
2016-03-11T08:43:54.665Z,957.34
2016-03-11T08:44:54.683Z,957.36
2016-03-11T08:45:54.702Z,957.37
2016-03-11T08:46:54.735Z,957.39
2016-03-11T08:47:54.738Z,957.42
2016-03-11T08:48:54.757Z,957.4
2016-03-11T08:49:54.760Z,957.43
2016-03-11T08:50:54.778Z,957.39
2016-03-11T08:51:54.796Z,957.42
2016-03-11T08:52:54.815Z,957.43
2016-03-11T08:53:54.832Z,957.43
2016-03-11T08:54:54.851Z,957.41
2016-03-11T08:55:54.870Z,957.39
2016-03-11T08:56:54.887Z,957.44
2016-03-11T08:57:54.906Z,957.38
2016-03-11T08:58:54.924Z,957.42
2016-03-11T08:59:54.943Z,957.41
2016-03-11T09:00:54.961Z,957.39
2016-03-11T09:01:54.978Z,957.4
2016-03-11T09:02:54.998Z,957.44
2016-03-11T09:03:55.016Z,957.46
2016-03-11T09:04:55.033Z,957.49
2016-03-11T09:05:55.067Z,957.51
2016-03-11T09:06:55.070Z,957.47
2016-03-11T09:07:55.089Z,957.41
2016-03-11T09:08:55.107Z,957.45
2016-03-11T09:09:55.125Z,957.48
2016-03-11T09:10:55.160Z,957.45
2016-03-11T09:11:55.163Z,957.45
2016-03-11T09:12:55.180Z,957.44
2016-03-11T09:13:55.199Z,957.46
2016-03-11T09:14:55.233Z,957.48
2016-03-11T09:15:55.252Z,957.48
2016-03-11T09:16:55.269Z,957.51
2016-03-11T09:17:55.288Z,957.52
2016-03-11T09:18:55.306Z,957.48
2016-03-11T09:19:55.324Z,957.46
2016-03-11T09:20:55.343Z,957.45
2016-03-11T09:21:55.360Z,957.48
2016-03-11T09:22:55.395Z,957.52
2016-03-11T09:23:55.413Z,957.49
2016-03-11T09:24:55.432Z,957.49
2016-03-11T09:25:55.450Z,957.51
2016-03-11T09:26:55.468Z,957.47
2016-03-11T09:27:55.487Z,957.49
2016-03-11T09:28:55.505Z,957.49
2016-03-11T09:29:55.523Z,957.5
2016-03-11T09:30:55.557Z,957.49
2016-03-11T09:31:55.560Z,957.5
2016-03-11T09:32:55.578Z,957.54
2016-03-11T09:33:55.611Z,957.5
2016-03-11T09:34:55.631Z,957.52
2016-03-11T09:35:55.648Z,957.52
2016-03-11T09:36:55.667Z,957.54
2016-03-11T09:37:55.670Z,957.51
2016-03-11T09:38:55.720Z,957.53
2016-03-11T09:39:55.722Z,957.58
2016-03-11T09:40:55.741Z,957.58
2016-03-11T09:41:55.758Z,957.54
2016-03-11T09:42:55.777Z,957.54
2016-03-11T09:43:55.795Z,957.54
2016-03-11T09:44:55.813Z,957.53
2016-03-11T09:45:55.832Z,957.52
2016-03-11T09:46:55.866Z,957.52
2016-03-11T09:47:55.868Z,957.55
2016-03-11T09:48:55.887Z,957.55
2016-03-11T09:49:55.904Z,957.55
2016-03-11T09:50:55.924Z,957.54
2016-03-11T09:51:55.958Z,957.54
2016-03-11T09:52:55.960Z,957.57
2016-03-11T09:53:56.010Z,957.54
2016-03-11T09:54:56.013Z,957.51
2016-03-11T09:55:56.046Z,957.55
2016-03-11T09:56:56.048Z,957.49
2016-03-11T09:57:56.068Z,957.48
2016-03-11T09:58:56.085Z,957.56
2016-03-11T09:59:56.120Z,957.56
2016-03-11T10:00:56.137Z,957.53
2016-03-11T10:01:56.172Z,957.52
2016-03-11T10:02:56.175Z,957.54
2016-03-11T10:03:56.192Z,957.53
2016-03-11T10:04:56.211Z,957.55
2016-03-11T10:05:56.229Z,957.55
2016-03-11T10:06:56.254Z,957.63
2016-03-11T10:07:56.272Z,957.57
2016-03-11T10:08:56.306Z,957.61
2016-03-11T10:09:56.309Z,957.59
2016-03-11T10:10:56.326Z,957.58
2016-03-11T10:11:56.361Z,957.56
2016-03-11T10:12:56.378Z,957.55
2016-03-11T10:13:56.398Z,957.54
2016-03-11T10:14:56.416Z,957.55
2016-03-11T10:15:56.433Z,957.55
2016-03-11T10:16:56.453Z,957.61
2016-03-11T10:17:56.471Z,957.54
2016-03-11T10:18:56.489Z,957.6
2016-03-11T10:19:56.507Z,957.52
2016-03-11T10:20:56.542Z,957.57
2016-03-11T10:21:56.560Z,957.6
2016-03-11T10:22:56.577Z,957.58
2016-03-11T10:23:56.596Z,957.57
2016-03-11T10:24:56.614Z,957.53
2016-03-11T10:25:56.633Z,957.53
2016-03-11T10:26:56.651Z,957.5
2016-03-11T10:27:56.685Z,957.53
2016-03-11T10:28:56.687Z,957.55
2016-03-11T10:29:56.721Z,957.52
2016-03-11T10:30:56.740Z,957.45
2016-03-11T10:31:56.757Z,957.48
2016-03-11T10:32:56.777Z,957.53
2016-03-11T10:33:56.795Z,957.5
2016-03-11T10:34:56.813Z,957.53
2016-03-11T10:35:56.831Z,957.47
2016-03-11T10:36:56.865Z,957.49
2016-03-11T10:37:56.868Z,957.52
2016-03-11T10:38:56.917Z,957.54
2016-03-11T10:39:56.921Z,957.51
2016-03-11T10:40:56.939Z,957.5
2016-03-11T10:41:56.956Z,957.53
2016-03-11T10:42:56.991Z,957.45
2016-03-11T10:43:56.994Z,957.47
2016-03-11T10:44:57.028Z,957.48
2016-03-11T10:45:57.045Z,957.48
2016-03-11T10:46:57.065Z,957.46
2016-03-11T10:47:57.083Z,957.49
2016-03-11T10:48:57.100Z,957.45
2016-03-11T10:49:57.119Z,957.44
2016-03-11T10:50:57.138Z,957.44
2016-03-11T10:51:57.172Z,957.45
2016-03-11T10:52:57.174Z,957.48
2016-03-11T10:53:57.208Z,957.48
2016-03-11T10:54:57.227Z,957.43
2016-03-11T10:55:57.244Z,957.47
2016-03-11T10:56:57.279Z,957.4
2016-03-11T10:57:57.296Z,957.41
2016-03-11T10:58:57.316Z,957.43
2016-03-11T10:59:57.333Z,957.41
2016-03-11T11:00:57.352Z,957.44
2016-03-11T11:01:57.385Z,957.4
2016-03-11T11:02:57.388Z,957.35
2016-03-11T11:03:57.423Z,957.43
2016-03-11T11:04:57.433Z,957.44
2016-03-11T11:05:57.437Z,957.48
2016-03-11T11:06:57.440Z,957.44
2016-03-11T11:07:57.428Z,957.44
2016-03-11T11:08:57.447Z,957.47
2016-03-11T11:09:57.455Z,957.49
2016-03-11T11:10:57.468Z,957.4
2016-03-11T11:11:57.481Z,957.39
2016-03-11T11:12:57.494Z,957.43
2016-03-11T11:13:57.522Z,957.39
2016-03-11T11:14:57.521Z,957.4
2016-03-11T11:15:57.554Z,957.37
2016-03-11T11:16:57.569Z,957.41
2016-03-11T11:17:57.586Z,957.36
2016-03-11T11:18:57.603Z,957.36
2016-03-11T11:19:57.619Z,957.32
2016-03-11T11:20:57.637Z,957.36
2016-03-11T11:21:57.654Z,957.31
2016-03-11T11:22:57.672Z,957.35
2016-03-11T11:23:57.690Z,957.33
2016-03-11T11:24:57.707Z,957.27
2016-03-11T11:25:57.726Z,957.3
2016-03-11T11:26:57.743Z,957.28
2016-03-11T11:27:57.760Z,957.28
2016-03-11T11:28:57.779Z,957.24
2016-03-11T11:29:57.796Z,957.29
2016-03-11T11:30:57.816Z,957.27
2016-03-11T11:31:57.834Z,957.28
2016-03-11T11:32:57.851Z,957.3
2016-03-11T11:33:57.871Z,957.22
2016-03-11T11:34:57.889Z,957.28
2016-03-11T11:35:57.906Z,957.24
2016-03-11T11:36:57.941Z,957.26
2016-03-11T11:37:57.943Z,957.24
2016-03-11T11:38:57.962Z,957.23
2016-03-11T11:39:57.995Z,957.23
2016-03-11T11:40:57.983Z,957.21
2016-03-11T11:41:58.001Z,957.23
2016-03-11T11:42:58.035Z,957.22
2016-03-11T11:43:58.053Z,957.21
2016-03-11T11:44:58.072Z,957.22
2016-03-11T11:45:58.089Z,957.23
2016-03-11T11:46:58.124Z,957.24
2016-03-11T11:47:58.111Z,957.21
2016-03-11T11:48:58.144Z,957.22
2016-03-11T11:49:58.147Z,957.21
2016-03-11T11:50:58.166Z,957.19
2016-03-11T11:51:58.185Z,957.24
2016-03-11T11:52:58.202Z,957.17
2016-03-11T11:53:58.221Z,957.24
2016-03-11T11:54:58.239Z,957.23
2016-03-11T11:55:58.258Z,957.22
2016-03-11T11:56:58.276Z,957.23
2016-03-11T11:57:58.294Z,957.22
2016-03-11T11:58:58.313Z,957.2
2016-03-11T11:59:58.346Z,957.18
2016-03-11T12:00:58.331Z,957.18
2016-03-11T12:01:58.352Z,957.18
2016-03-11T12:02:58.386Z,957.18
2016-03-11T12:03:58.388Z,957.17
2016-03-11T12:04:58.407Z,957.06
2016-03-11T12:05:58.425Z,957.18
2016-03-11T12:06:58.459Z,957.17
2016-03-11T12:07:58.462Z,957.15
2016-03-11T12:08:58.480Z,957.18
2016-03-11T12:09:58.498Z,957.13
2016-03-11T12:10:58.517Z,957.12
2016-03-11T12:11:58.534Z,957.13
2016-03-11T12:12:58.538Z,957.17
2016-03-11T12:13:58.572Z,957.13
2016-03-11T12:14:58.575Z,957.12
2016-03-11T12:15:58.592Z,957.1
2016-03-11T12:16:58.642Z,957.08
2016-03-11T12:17:58.630Z,957.12
2016-03-11T12:18:58.647Z,957.12
2016-03-11T12:19:58.666Z,957.1
2016-03-11T12:20:58.684Z,957.13
2016-03-11T12:21:58.703Z,957.16
2016-03-11T12:22:58.705Z,957.13
2016-03-11T12:23:58.724Z,957.08
2016-03-11T12:24:58.742Z,957.14
2016-03-11T12:25:58.760Z,957.15
2016-03-11T12:26:58.779Z,957.14
2016-03-11T12:27:58.796Z,957.12
2016-03-11T12:28:58.815Z,957.15
2016-03-11T12:29:58.833Z,957.1
2016-03-11T12:30:58.852Z,957.12